Time;durP1;ratioP1;P1;durP2;ratioP2;P2;SDS_P1;SDS_P2;PMS_P1;PMS_P2;Temp;Humidity;BMP_temperature;BMP_pressure;BME280_temperature;BME280_humidity;BME280_pressure;Samples;Min_cycle;Max_cycle;Signal;HPM_P1;HPM_P2
2022/10/16 00:01:54;;;;;;;7.40;5.40;;;;;;;;;;9930326;29;20084;-65
2022/10/16 00:06:54;;;;;;;9.80;5.05;;;;;;;;;;9921748;29;20077;-66
2022/10/16 00:11:52;;;;;;;7.55;5.80;;;;;;;;;;9927871;29;20481;-66
2022/10/16 00:16:51;;;;;;;9.63;6.15;;;;;;;;;;9934613;29;20080;-67
2022/10/16 00:21:49;;;;;;;9.68;5.88;;;;;;;;;;9927620;29;20076;-67
2022/10/16 00:26:50;;;;;;;14.18;6.35;;;;;;;;;;9924013;29;20181;-67
2022/10/16 00:31:48;;;;;;;7.78;6.55;;;;;;;;;;9927167;29;20075;-68
2022/10/16 00:36:46;;;;;;;8.35;6.40;;;;;;;;;;9929665;29;20445;-66
2022/10/16 00:41:45;;;;;;;8.93;6.03;;;;;;;;;;9922206;29;20085;-67
2022/10/16 00:46:44;;;;;;;9.02;5.47;;;;;;;;;;9923843;29;20522;-67
2022/10/16 00:51:44;;;;;;;12.25;5.93;;;;;;;;;;9924615;29;20088;-66
2022/10/16 00:56:42;;;;;;;12.23;5.07;;;;;;;;;;9929398;29;20072;-66
2022/10/16 01:01:41;;;;;;;10.68;5.50;;;;;;;;;;9924594;29;20076;-67
2022/10/16 01:06:47;;;;;;;11.63;5.57;;;;;;;;;;9924874;29;20076;-66
2022/10/16 01:11:50;;;;;;;6.75;4.38;;;;;;;;;;9921343;29;20088;-67
2022/10/16 01:16:50;;;;;;;10.00;5.72;;;;;;;;;;9920627;29;20510;-66
2022/10/16 01:21:52;;;;;;;8.27;4.75;;;;;;;;;;9922157;29;20081;-67
2022/10/16 01:27:06;;;;;;;5.35;4.22;;;;;;;;;;9923938;29;20072;-67
2022/10/16 01:32:10;;;;;;;9.45;4.65;;;;;;;;;;9920690;29;20488;-68
2022/10/16 01:37:10;;;;;;;6.15;4.60;;;;;;;;;;9919804;29;20085;-67
2022/10/16 01:42:14;;;;;;;15.40;4.80;;;;;;;;;;9928127;29;20076;-68
2022/10/16 01:47:14;;;;;;;7.88;3.75;;;;;;;;;;9929375;29;20535;-68
2022/10/16 01:52:14;;;;;;;7.55;4.75;;;;;;;;;;9938720;29;20076;-68
2022/10/16 01:57:15;;;;;;;7.20;4.60;;;;;;;;;;9930329;29;20091;-69
2022/10/16 02:02:14;;;;;;;6.65;4.72;;;;;;;;;;9929657;29;20108;-67
2022/10/16 02:07:12;;;;;;;5.93;4.22;;;;;;;;;;9929139;29;20095;-67
2022/10/16 02:12:12;;;;;;;6.75;4.43;;;;;;;;;;9929662;29;20089;-66
2022/10/16 02:17:13;;;;;;;8.45;4.57;;;;;;;;;;9928062;29;20088;-67
2022/10/16 02:22:16;;;;;;;9.73;4.88;;;;;;;;;;9928293;29;20084;-67
2022/10/16 02:27:20;;;;;;;9.80;4.70;;;;;;;;;;9927963;29;20084;-66
2022/10/16 02:32:21;;;;;;;6.20;4.72;;;;;;;;;;9927150;29;20072;-67
2022/10/16 02:37:20;;;;;;;9.73;4.80;;;;;;;;;;9929476;29;20089;-67
2022/10/16 02:42:18;;;;;;;7.68;4.25;;;;;;;;;;9925885;29;20076;-67
2022/10/16 02:47:17;;;;;;;6.82;4.20;;;;;;;;;;9926468;29;20077;-66
2022/10/16 02:52:16;;;;;;;6.78;4.80;;;;;;;;;;9929572;29;20076;-67
2022/10/16 02:57:14;;;;;;;4.75;4.25;;;;;;;;;;9933514;29;20078;-66
2022/10/16 03:02:12;;;;;;;15.82;7.95;;;;;;;;;;9927180;29;20076;-66
2022/10/16 03:07:11;;;;;;;11.15;9.32;;;;;;;;;;9933071;29;20092;-67
2022/10/16 03:12:11;;;;;;;14.55;6.20;;;;;;;;;;9927434;29;20088;-68
2022/10/16 03:17:09;;;;;;;10.55;7.18;;;;;;;;;;9929988;29;20099;-68
2022/10/16 03:22:08;;;;;;;8.27;6.95;;;;;;;;;;9929876;29;20439;-66
2022/10/16 03:27:06;;;;;;;8.88;6.50;;;;;;;;;;9930408;29;20114;-67
2022/10/16 03:32:06;;;;;;;31.45;18.50;;;;;;;;;;9930387;29;20503;-67
2022/10/16 03:37:04;;;;;;;15.00;9.68;;;;;;;;;;9926890;29;20072;-68
2022/10/16 03:42:02;;;;;;;19.63;13.63;;;;;;;;;;9929100;29;20049;-67
2022/10/16 03:47:00;;;;;;;19.00;13.82;;;;;;;;;;9929474;29;20503;-68
2022/10/16 03:52:00;;;;;;;10.93;6.95;;;;;;;;;;9928230;29;20130;-67
2022/10/16 03:56:58;;;;;;;14.65;6.57;;;;;;;;;;9922475;29;20088;-67
2022/10/16 04:01:57;;;;;;;13.95;7.57;;;;;;;;;;9922868;29;20503;-68
2022/10/16 04:06:55;;;;;;;10.07;7.60;;;;;;;;;;9923753;29;20080;-66
2022/10/16 04:11:54;;;;;;;12.13;9.02;;;;;;;;;;9923538;29;20092;-67
2022/10/16 04:16:53;;;;;;;15.60;8.15;;;;;;;;;;9922830;29;20084;-66
2022/10/16 04:21:51;;;;;;;10.40;6.90;;;;;;;;;;9923455;29;20100;-66
2022/10/16 04:26:49;;;;;;;16.20;7.90;;;;;;;;;;9923014;29;20088;-67
2022/10/16 04:31:49;;;;;;;15.23;7.70;;;;;;;;;;9923643;29;20084;-67
2022/10/16 04:36:48;;;;;;;15.55;8.48;;;;;;;;;;9932809;29;20117;-68
2022/10/16 04:41:46;;;;;;;11.38;7.18;;;;;;;;;;9926515;29;20127;-68
2022/10/16 04:46:44;;;;;;;8.57;6.97;;;;;;;;;;9925781;29;20092;-68
2022/10/16 04:51:44;;;;;;;10.90;7.65;;;;;;;;;;9923059;29;20482;-66
2022/10/16 04:56:46;;;;;;;12.43;6.82;;;;;;;;;;9923814;29;20080;-68
2022/10/16 05:01:46;;;;;;;10.48;7.22;;;;;;;;;;9923802;29;20076;-66
2022/10/16 05:06:46;;;;;;;11.38;7.07;;;;;;;;;;9921884;29;20087;-67
2022/10/16 05:11:44;;;;;;;12.95;7.85;;;;;;;;;;9921637;29;20107;-66
2022/10/16 05:16:42;;;;;;;13.02;8.52;;;;;;;;;;9921399;29;20506;-66
2022/10/16 05:21:40;;;;;;;10.80;8.93;;;;;;;;;;9922776;29;20155;-67
2022/10/16 05:26:40;;;;;;;13.82;9.27;;;;;;;;;;9922614;29;20103;-66
2022/10/16 05:31:38;;;;;;;13.93;10.95;;;;;;;;;;9922907;29;20471;-66
2022/10/16 05:36:36;;;;;;;15.07;10.00;;;;;;;;;;9924914;29;20463;-65
2022/10/16 05:41:35;;;;;;;19.25;10.90;;;;;;;;;;9920533;29;20077;-67
2022/10/16 05:46:34;;;;;;;13.05;10.95;;;;;;;;;;9924297;29;20099;-67
2022/10/16 05:51:32;;;;;;;16.30;12.40;;;;;;;;;;9919861;29;20534;-67
2022/10/16 05:56:31;;;;;;;16.50;11.85;;;;;;;;;;9926266;29;20456;-67
2022/10/16 06:01:30;;;;;;;11.20;9.50;;;;;;;;;;9930023;29;20095;-67
2022/10/16 06:06:30;;;;;;;16.00;10.35;;;;;;;;;;9921440;29;20559;-67
2022/10/16 06:11:29;;;;;;;9.88;7.95;;;;;;;;;;9919306;29;20117;-67
2022/10/16 06:16:28;;;;;;;11.75;8.90;;;;;;;;;;9920436;29;20546;-66
2022/10/16 06:21:27;;;;;;;15.82;10.95;;;;;;;;;;9926835;29;20087;-66
2022/10/16 06:26:27;;;;;;;17.42;9.48;;;;;;;;;;9928592;29;20083;-66
2022/10/16 06:31:27;;;;;;;14.82;8.82;;;;;;;;;;9929067;29;20135;-67
2022/10/16 06:36:26;;;;;;;14.95;9.73;;;;;;;;;;9928925;29;20092;-67
2022/10/16 06:41:24;;;;;;;13.10;10.80;;;;;;;;;;9930000;29;20091;-67
2022/10/16 06:46:27;;;;;;;12.57;9.70;;;;;;;;;;9927890;29;20081;-67
2022/10/16 06:51:25;;;;;;;21.15;10.88;;;;;;;;;;9924708;29;20084;-65
2022/10/16 06:56:24;;;;;;;13.77;8.98;;;;;;;;;;9923080;29;20077;-67
2022/10/16 07:01:25;;;;;;;21.15;8.60;;;;;;;;;;9919829;29;20065;-68
2022/10/16 07:06:27;;;;;;;12.27;10.07;;;;;;;;;;9921788;29;20072;-65
2022/10/16 07:11:25;;;;;;;15.95;8.93;;;;;;;;;;9928322;29;20103;-66
2022/10/16 07:16:25;;;;;;;14.77;9.50;;;;;;;;;;9929927;29;20076;-67
2022/10/16 07:21:25;;;;;;;14.20;9.30;;;;;;;;;;9937033;29;20519;-66
2022/10/16 07:26:23;;;;;;;13.32;8.95;;;;;;;;;;9922199;29;20068;-66
2022/10/16 07:31:22;;;;;;;13.05;8.98;;;;;;;;;;9925883;29;20077;-66
2022/10/16 07:36:22;;;;;;;16.05;9.23;;;;;;;;;;9921566;29;20089;-65
2022/10/16 07:41:20;;;;;;;13.82;9.00;;;;;;;;;;9923386;29;20072;-66
2022/10/16 07:46:19;;;;;;;21.85;14.45;;;;;;;;;;9922903;29;20075;-67
2022/10/16 07:51:18;;;;;;;19.50;8.82;;;;;;;;;;9922553;29;20072;-65
2022/10/16 07:56:18;;;;;;;13.77;8.43;;;;;;;;;;9929835;29;20111;-66
2022/10/16 08:01:17;;;;;;;11.07;9.10;;;;;;;;;;9922057;29;20554;-63
2022/10/16 08:06:16;;;;;;;18.40;11.27;;;;;;;;;;9922987;29;20087;-63
2022/10/16 08:11:20;;;;;;;12.30;9.27;;;;;;;;;;9923920;29;20084;-64
2022/10/16 08:16:18;;;;;;;10.07;9.07;;;;;;;;;;9921820;29;20085;-62
2022/10/16 08:21:17;;;;;;;10.40;8.57;;;;;;;;;;9920768;29;20080;-62
2022/10/16 08:26:20;;;;;;;10.68;8.80;;;;;;;;;;9924421;29;21362;-62
2022/10/16 08:31:18;;;;;;;10.80;8.40;;;;;;;;;;9924216;29;20075;-63
2022/10/16 08:36:17;;;;;;;10.50;8.10;;;;;;;;;;9921750;29;20102;-63
2022/10/16 08:41:21;;;;;;;6.97;6.25;;;;;;;;;;9922523;29;20082;-63
2022/10/16 08:46:27;;;;;;;16.58;6.07;;;;;;;;;;9922317;29;20080;-62
2022/10/16 08:51:29;;;;;;;8.07;7.03;;;;;;;;;;9918917;29;20085;-62
2022/10/16 08:56:33;;;;;;;8.52;6.10;;;;;;;;;;9920362;29;20080;-62
2022/10/16 09:01:38;;;;;;;13.13;7.00;;;;;;;;;;9922766;29;20108;-62
2022/10/16 09:06:42;;;;;;;6.97;5.80;;;;;;;;;;9920612;29;20182;-63
2022/10/16 09:11:47;;;;;;;8.83;5.57;;;;;;;;;;9923840;29;20510;-62
2022/10/16 09:16:47;;;;;;;7.10;5.80;;;;;;;;;;9923468;29;20085;-62
2022/10/16 09:21:47;;;;;;;7.18;5.55;;;;;;;;;;9904685;29;20088;-63
2022/10/16 09:26:47;;;;;;;11.95;5.03;;;;;;;;;;9922584;29;20487;-63
2022/10/16 09:31:45;;;;;;;7.65;5.57;;;;;;;;;;9924257;29;20088;-62
2022/10/16 09:36:45;;;;;;;7.45;6.22;;;;;;;;;;9920435;29;20080;-63
2022/10/16 09:41:44;;;;;;;9.50;5.22;;;;;;;;;;9921569;29;20494;-63
2022/10/16 09:46:49;;;;;;;8.57;5.45;;;;;;;;;;9925892;29;20455;-63
2022/10/16 09:51:50;;;;;;;13.52;6.43;;;;;;;;;;9920336;29;20089;-62
2022/10/16 09:56:51;;;;;;;6.82;6.13;;;;;;;;;;9921557;29;20084;-62
2022/10/16 10:01:55;;;;;;;9.73;6.53;;;;;;;;;;9930134;29;20076;-62
2022/10/16 10:06:55;;;;;;;11.20;6.30;;;;;;;;;;9929036;29;20076;-63
2022/10/16 10:11:54;;;;;;;7.15;6.38;;;;;;;;;;9938965;29;20538;-63
2022/10/16 10:17:08;;;;;;;14.10;6.88;;;;;;;;;;9933270;29;20674;-62
2022/10/16 10:22:14;;;;;;;11.02;7.03;;;;;;;;;;9936246;29;20084;-62
2022/10/16 10:27:15;;;;;;;10.15;6.10;;;;;;;;;;9926067;29;20087;-61
2022/10/16 10:32:20;;;;;;;11.85;7.20;;;;;;;;;;9927197;29;20518;-63
2022/10/16 10:37:29;;;;;;;11.00;6.57;;;;;;;;;;9929431;29;20077;-62
2022/10/16 10:42:31;;;;;;;19.60;8.07;;;;;;;;;;9929375;29;20081;-62
2022/10/16 10:47:37;;;;;;;12.75;5.93;;;;;;;;;;9926564;29;20483;-62
2022/10/16 10:52:42;;;;;;;8.68;6.30;;;;;;;;;;9927543;29;20129;-63
2022/10/16 10:57:44;;;;;;;10.63;7.38;;;;;;;;;;9926226;29;20080;-63
2022/10/16 11:02:49;;;;;;;7.65;6.75;;;;;;;;;;9926879;29;20755;-62
2022/10/16 11:07:50;;;;;;;9.27;7.40;;;;;;;;;;9925711;29;20080;-63
2022/10/16 11:12:50;;;;;;;10.55;7.28;;;;;;;;;;9926263;29;20523;-63
2022/10/16 11:17:52;;;;;;;13.60;8.30;;;;;;;;;;9927760;29;20087;-63
2022/10/16 11:22:52;;;;;;;8.20;6.43;;;;;;;;;;9927082;29;20104;-63
2022/10/16 11:27:52;;;;;;;12.40;6.65;;;;;;;;;;9930655;29;20545;-63
2022/10/16 11:33:02;;;;;;;12.27;6.03;;;;;;;;;;9933977;29;20084;-63
2022/10/16 11:38:02;;;;;;;9.57;5.45;;;;;;;;;;9928727;29;20081;-63
2022/10/16 11:43:03;;;;;;;16.80;6.18;;;;;;;;;;9927170;29;20083;-63
2022/10/16 11:48:12;;;;;;;7.65;5.30;;;;;;;;;;9928108;29;20096;-66
2022/10/16 11:53:14;;;;;;;10.70;5.93;;;;;;;;;;9926767;29;20080;-63
2022/10/16 11:58:22;;;;;;;8.73;6.32;;;;;;;;;;9927185;29;20530;-64
2022/10/16 12:03:35;;;;;;;8.35;5.90;;;;;;;;;;9922375;29;20076;-63
2022/10/16 12:08:52;;;;;;;7.93;6.20;;;;;;;;;;9936209;29;20077;-64
2022/10/16 12:14:08;;;;;;;8.70;6.70;;;;;;;;;;9934485;29;20091;-63
2022/10/16 12:19:18;;;;;;;10.50;6.90;;;;;;;;;;9931615;29;20080;-63
2022/10/16 12:24:32;;;;;;;11.40;6.45;;;;;;;;;;9923587;29;20092;-62
2022/10/16 12:29:34;;;;;;;10.77;6.55;;;;;;;;;;9926343;29;20475;-62
2022/10/16 12:34:38;;;;;;;10.32;6.07;;;;;;;;;;9923002;29;20080;-62
2022/10/16 12:39:37;;;;;;;9.30;7.22;;;;;;;;;;9923155;29;20093;-63
2022/10/16 12:44:37;;;;;;;8.98;7.07;;;;;;;;;;9941630;29;20438;-61
2022/10/16 12:49:39;;;;;;;15.48;9.05;;;;;;;;;;9924305;29;20076;-62
2022/10/16 12:54:39;;;;;;;10.27;8.05;;;;;;;;;;9926371;29;20080;-62
2022/10/16 12:59:43;;;;;;;11.10;9.80;;;;;;;;;;9924229;29;20510;-62
2022/10/16 13:04:52;;;;;;;8.40;7.47;;;;;;;;;;9921474;29;20435;-63
2022/10/16 13:09:58;;;;;;;11.32;6.97;;;;;;;;;;9923150;29;20076;-64
2022/10/16 13:15:17;;;;;;;12.57;7.50;;;;;;;;;;9923402;29;20088;-62
2022/10/16 13:20:21;;;;;;;13.20;9.30;;;;;;;;;;9907651;29;20076;-62
2022/10/16 13:25:23;;;;;;;10.48;8.18;;;;;;;;;;9935073;29;20087;-62
2022/10/16 13:30:22;;;;;;;19.95;11.60;;;;;;;;;;9923320;29;20158;-63
2022/10/16 13:35:30;;;;;;;12.18;7.50;;;;;;;;;;9922955;29;20166;-62
2022/10/16 13:40:28;;;;;;;11.32;8.00;;;;;;;;;;9923024;29;20080;-62
2022/10/16 13:45:26;;;;;;;11.63;6.97;;;;;;;;;;9923059;29;20745;-63
2022/10/16 13:50:25;;;;;;;18.55;13.23;;;;;;;;;;9926248;29;20092;-63
2022/10/16 13:55:24;;;;;;;12.60;6.53;;;;;;;;;;9925407;29;20081;-63
2022/10/16 14:00:24;;;;;;;12.55;6.63;;;;;;;;;;9922277;29;20080;-63
2022/10/16 14:05:22;;;;;;;12.73;6.45;;;;;;;;;;9923213;29;20084;-61
2022/10/16 14:10:22;;;;;;;16.60;9.00;;;;;;;;;;9927390;29;20519;-62
2022/10/16 14:15:22;;;;;;;12.25;6.20;;;;;;;;;;9931312;29;20084;-62
2022/10/16 14:20:25;;;;;;;11.30;5.97;;;;;;;;;;9928974;29;20101;-63
2022/10/16 14:25:27;;;;;;;13.40;7.20;;;;;;;;;;9932953;29;20353;-63
2022/10/16 14:30:27;;;;;;;12.23;5.75;;;;;;;;;;9918857;29;20531;-62
2022/10/16 14:35:27;;;;;;;8.55;5.95;;;;;;;;;;9924582;29;20084;-62
2022/10/16 14:40:26;;;;;;;7.03;5.38;;;;;;;;;;9921096;29;20088;-62
2022/10/16 14:45:26;;;;;;;9.43;5.35;;;;;;;;;;9921076;29;20087;-62
2022/10/16 14:50:26;;;;;;;16.40;8.23;;;;;;;;;;9939371;29;20084;-62
2022/10/16 14:55:25;;;;;;;19.20;11.32;;;;;;;;;;9927019;29;20519;-61
2022/10/16 15:00:25;;;;;;;16.45;10.57;;;;;;;;;;9926954;29;20080;-62
2022/10/16 15:05:24;;;;;;;21.73;10.05;;;;;;;;;;9927992;29;20089;-62
2022/10/16 15:10:25;;;;;;;12.48;8.45;;;;;;;;;;9933914;29;20076;-63
2022/10/16 15:15:29;;;;;;;12.32;5.80;;;;;;;;;;9951720;29;20111;-62
2022/10/16 15:20:27;;;;;;;;;;;;;;;;;;9941956;29;20492;-62
2022/10/16 15:25:30;;;;;;;18.13;7.18;;;;;;;;;;9927535;29;19970;-62
2022/10/16 15:30:28;;;;;;;29.90;8.93;;;;;;;;;;9948626;29;20079;-61
2022/10/16 15:35:30;;;;;;;35.30;10.70;;;;;;;;;;9952165;29;20486;-63
2022/10/16 15:40:30;;;;;;;45.58;11.55;;;;;;;;;;9941823;29;20167;-63
2022/10/16 15:45:29;;;;;;;24.92;8.80;;;;;;;;;;9927062;29;20084;-63
2022/10/16 15:50:27;;;;;;;12.68;5.60;;;;;;;;;;9940352;29;20494;-62
2022/10/16 15:55:26;;;;;;;11.82;5.15;;;;;;;;;;9930397;29;20091;-63
2022/10/16 16:00:25;;;;;;;13.30;6.25;;;;;;;;;;9936456;29;20076;-62
2022/10/16 16:05:24;;;;;;;7.10;5.10;;;;;;;;;;9930083;29;20076;-62
2022/10/16 16:10:22;;;;;;;11.18;5.05;;;;;;;;;;9924868;29;20083;-62
2022/10/16 16:15:21;;;;;;;9.35;6.28;;;;;;;;;;9955143;29;20095;-63
2022/10/16 16:20:21;;;;;;;11.60;5.75;;;;;;;;;;9936095;29;20506;-63
2022/10/16 16:25:22;;;;;;;7.97;5.70;;;;;;;;;;9930647;29;20099;-63
2022/10/16 16:30:20;;;;;;;7.28;4.70;;;;;;;;;;9924463;29;20088;-61
2022/10/16 16:35:25;;;;;;;8.87;5.90;;;;;;;;;;9930186;29;20077;-63
2022/10/16 16:40:24;;;;;;;12.95;5.15;;;;;;;;;;9929401;29;20076;-62
2022/10/16 16:45:22;;;;;;;10.45;5.70;;;;;;;;;;9925317;29;20076;-62
2022/10/16 16:50:20;;;;;;;9.15;5.97;;;;;;;;;;9927999;29;20136;-63
2022/10/16 16:55:20;;;;;;;10.27;6.03;;;;;;;;;;9925097;29;20081;-62
2022/10/16 17:00:18;;;;;;;9.82;6.10;;;;;;;;;;9937231;29;20076;-62
2022/10/16 17:05:17;;;;;;;7.25;5.53;;;;;;;;;;9922208;29;20083;-61
2022/10/16 17:10:15;;;;;;;11.63;5.90;;;;;;;;;;9927800;29;20073;-61
2022/10/16 17:15:14;;;;;;;12.25;6.25;;;;;;;;;;9920605;29;20081;-61
2022/10/16 17:20:14;;;;;;;9.38;5.75;;;;;;;;;;9927266;29;20147;-62
2022/10/16 17:25:16;;;;;;;9.23;5.57;;;;;;;;;;9924064;29;20085;-61
2022/10/16 17:30:18;;;;;;;7.82;4.40;;;;;;;;;;9927086;29;20084;-62
2022/10/16 17:35:16;;;;;;;3.85;3.33;;;;;;;;;;9918393;29;20089;-63
2022/10/16 17:40:17;;;;;;;5.30;3.42;;;;;;;;;;9925674;29;20076;-63
2022/10/16 17:45:17;;;;;;;7.07;3.42;;;;;;;;;;9926287;29;20084;-61
2022/10/16 17:50:15;;;;;;;9.35;5.60;;;;;;;;;;9927535;29;20084;-64
2022/10/16 17:55:14;;;;;;;26.48;12.25;;;;;;;;;;9938427;29;20088;-62
2022/10/16 18:00:12;;;;;;;8.70;5.60;;;;;;;;;;9925560;29;20092;-63
2022/10/16 18:05:13;;;;;;;6.40;4.20;;;;;;;;;;9928638;29;20635;-67
2022/10/16 18:10:14;;;;;;;7.53;3.60;;;;;;;;;;9921700;29;20155;-65
2022/10/16 18:15:18;;;;;;;8.73;3.63;;;;;;;;;;9930913;29;20084;-63
2022/10/16 18:20:20;;;;;;;9.50;4.82;;;;;;;;;;9924626;29;20499;-63
2022/10/16 18:25:18;;;;;;;12.32;7.50;;;;;;;;;;9930935;29;20084;-63
2022/10/16 18:30:17;;;;;;;6.13;4.95;;;;;;;;;;9938042;29;20443;-64
2022/10/16 18:35:16;;;;;;;5.43;4.43;;;;;;;;;;9943197;29;20087;-62
2022/10/16 18:40:19;;;;;;;11.45;5.80;;;;;;;;;;9932029;29;20080;-64
2022/10/16 18:45:17;;;;;;;7.68;4.93;;;;;;;;;;9929028;29;20488;-63
2022/10/16 18:50:16;;;;;;;7.28;5.20;;;;;;;;;;9930701;29;20491;-64
2022/10/16 18:55:14;;;;;;;14.23;7.00;;;;;;;;;;9933458;29;20081;-64
2022/10/16 19:00:14;;;;;;;7.28;3.63;;;;;;;;;;9930696;29;20088;-63
2022/10/16 19:05:12;;;;;;;6.95;4.50;;;;;;;;;;9930329;29;20480;-64
2022/10/16 19:10:13;;;;;;;7.30;4.90;;;;;;;;;;9927506;29;20092;-63
2022/10/16 19:15:13;;;;;;;8.32;4.18;;;;;;;;;;9926972;29;20084;-63
2022/10/16 19:20:17;;;;;;;6.60;4.45;;;;;;;;;;9933134;29;20084;-63
2022/10/16 19:25:16;;;;;;;6.97;3.75;;;;;;;;;;9930383;29;20089;-64
2022/10/16 19:30:18;;;;;;;5.57;3.20;;;;;;;;;;9932045;29;20084;-64
2022/10/16 19:35:17;;;;;;;6.45;3.75;;;;;;;;;;9928027;29;20093;-64
2022/10/16 19:40:16;;;;;;;6.70;3.60;;;;;;;;;;9931771;29;20129;-65
2022/10/16 19:45:14;;;;;;;6.25;3.22;;;;;;;;;;9938394;29;20080;-63
2022/10/16 19:50:15;;;;;;;5.60;3.30;;;;;;;;;;9915634;29;20568;-63
2022/10/16 19:55:14;;;;;;;4.03;3.25;;;;;;;;;;9926107;29;20085;-63
2022/10/16 20:00:13;;;;;;;6.38;3.58;;;;;;;;;;9932616;29;20115;-63
2022/10/16 20:05:11;;;;;;;5.25;3.80;;;;;;;;;;9947565;29;20084;-63
2022/10/16 20:10:09;;;;;;;5.53;4.00;;;;;;;;;;9933691;29;20084;-63
2022/10/16 20:15:10;;;;;;;5.25;3.53;;;;;;;;;;9936046;29;20087;-63
2022/10/16 20:20:09;;;;;;;8.43;3.22;;;;;;;;;;9922159;29;20081;-63
2022/10/16 20:25:07;;;;;;;4.97;4.15;;;;;;;;;;9923929;29;20550;-63
2022/10/16 20:30:11;;;;;;;5.43;3.70;;;;;;;;;;9923279;29;20095;-62
2022/10/16 20:35:10;;;;;;;5.60;3.75;;;;;;;;;;9957082;29;20088;-65
2022/10/16 20:40:10;;;;;;;3.97;3.30;;;;;;;;;;9924110;29;20072;-61
2022/10/16 20:45:09;;;;;;;5.03;3.60;;;;;;;;;;9947160;29;20080;-62
2022/10/16 20:50:12;;;;;;;12.18;3.63;;;;;;;;;;9924708;29;20534;-63
2022/10/16 20:55:11;;;;;;;4.20;3.60;;;;;;;;;;9923577;29;20111;-64
2022/10/16 21:00:13;;;;;;;5.20;3.20;;;;;;;;;;9922938;29;20083;-63
2022/10/16 21:05:12;;;;;;;9.52;3.70;;;;;;;;;;9943742;29;20081;-62
2022/10/16 21:10:13;;;;;;;7.30;3.95;;;;;;;;;;9929828;29;20105;-63
2022/10/16 21:15:12;;;;;;;6.72;3.67;;;;;;;;;;9923360;29;20088;-63
2022/10/16 21:20:14;;;;;;;11.57;4.13;;;;;;;;;;9924908;29;20085;-62
2022/10/16 21:25:12;;;;;;;8.80;3.53;;;;;;;;;;9924214;29;20068;-63
2022/10/16 21:30:10;;;;;;;3.75;2.92;;;;;;;;;;9924065;29;20522;-63
2022/10/16 21:35:11;;;;;;;6.90;3.42;;;;;;;;;;9925501;29;20095;-63
2022/10/16 21:40:11;;;;;;;4.18;3.20;;;;;;;;;;9922234;29;20082;-63
2022/10/16 21:45:09;;;;;;;5.80;3.75;;;;;;;;;;9922086;29;20195;-64
2022/10/16 21:50:09;;;;;;;7.20;4.82;;;;;;;;;;9923389;29;20069;-63
2022/10/16 21:55:08;;;;;;;9.25;4.35;;;;;;;;;;9922789;29;20080;-63
2022/10/16 22:00:09;;;;;;;8.05;5.13;;;;;;;;;;9927690;29;20073;-62
2022/10/16 22:05:08;;;;;;;8.40;5.18;;;;;;;;;;9934931;29;20088;-62
2022/10/16 22:10:07;;;;;;;9.52;6.45;;;;;;;;;;9928893;29;20080;-62
2022/10/16 22:15:05;;;;;;;7.07;5.18;;;;;;;;;;9931677;29;20089;-63
2022/10/16 22:20:05;;;;;;;9.95;5.72;;;;;;;;;;9928299;29;20080;-62
2022/10/16 22:25:04;;;;;;;6.07;3.60;;;;;;;;;;9929885;29;20087;-63
2022/10/16 22:30:02;;;;;;;5.28;3.42;;;;;;;;;;9928653;29;20087;-63
2022/10/16 22:35:00;;;;;;;3.58;3.05;;;;;;;;;;9931610;29;20080;-63
2022/10/16 22:40:00;;;;;;;4.53;3.05;;;;;;;;;;9929617;29;20080;-63
2022/10/16 22:44:58;;;;;;;7.40;3.72;;;;;;;;;;9930737;29;20115;-62
2022/10/16 22:49:57;;;;;;;5.88;3.63;;;;;;;;;;9935587;29;20084;-63
2022/10/16 22:54:55;;;;;;;7.30;3.42;;;;;;;;;;9928664;29;20510;-63
2022/10/16 22:59:54;;;;;;;6.28;3.17;;;;;;;;;;9930252;29;20076;-63
2022/10/16 23:04:52;;;;;;;11.50;7.40;;;;;;;;;;9926964;29;20084;-62
2022/10/16 23:09:51;;;;;;;15.18;10.48;;;;;;;;;;9927054;29;20096;-62
2022/10/16 23:14:49;;;;;;;12.52;9.25;;;;;;;;;;9925806;29;20095;-62
2022/10/16 23:19:48;;;;;;;13.13;9.57;;;;;;;;;;9926988;29;20079;-62
2022/10/16 23:24:47;;;;;;;17.77;10.82;;;;;;;;;;9925671;29;20077;-63
2022/10/16 23:29:45;;;;;;;18.05;9.63;;;;;;;;;;9927555;29;20087;-62
2022/10/16 23:34:43;;;;;;;13.52;8.93;;;;;;;;;;9925113;29;20084;-62
2022/10/16 23:39:42;;;;;;;12.30;8.30;;;;;;;;;;9927291;29;20080;-64
2022/10/16 23:44:41;;;;;;;10.30;8.13;;;;;;;;;;9927869;29;20083;-63
2022/10/16 23:49:39;;;;;;;11.48;9.18;;;;;;;;;;9926989;29;20076;-63
2022/10/16 23:54:37;;;;;;;12.18;8.82;;;;;;;;;;9926809;29;20297;-61
2022/10/16 23:59:37;;;;;;;11.05;8.32;;;;;;;;;;9928769;29;20553;-63
